createdAt,value
2022-08-04T00:01:51.583Z,21.90
2022-08-04T00:04:33.122Z,21.90
2022-08-04T00:07:14.076Z,21.90
2022-08-04T00:09:53.990Z,21.90
2022-08-04T00:12:31.290Z,22.00
2022-08-04T00:15:03.724Z,21.90
2022-08-04T00:17:46.758Z,21.80
2022-08-04T00:20:22.221Z,21.80
2022-08-04T00:22:58.315Z,21.80
2022-08-04T00:25:27.991Z,21.80
2022-08-04T00:27:57.826Z,21.60
2022-08-04T00:30:26.315Z,21.70
2022-08-04T00:33:03.146Z,21.70
2022-08-04T00:35:33.301Z,21.70
2022-08-04T00:38:03.394Z,21.60
2022-08-04T00:40:51.390Z,21.60
2022-08-04T00:43:38.082Z,21.60
2022-08-04T00:46:29.235Z,21.60
2022-08-04T00:49:39.934Z,21.60
2022-08-04T00:52:34.029Z,21.50
2022-08-04T00:55:08.505Z,21.50
2022-08-04T00:58:06.732Z,21.60
2022-08-04T01:01:07.660Z,21.60
2022-08-04T01:03:51.455Z,21.50
2022-08-04T01:06:39.818Z,21.50
2022-08-04T01:09:36.530Z,21.40
2022-08-04T01:12:19.433Z,21.40
2022-08-04T01:15:19.296Z,21.30
2022-08-04T01:18:02.322Z,21.20
2022-08-04T01:20:58.888Z,21.30
2022-08-04T01:23:53.172Z,21.30
2022-08-04T01:26:53.749Z,21.20
2022-08-04T01:30:04.851Z,21.20
2022-08-04T01:32:47.574Z,21.20
2022-08-04T01:35:47.029Z,21.10
2022-08-04T01:38:38.509Z,21.00
2022-08-04T01:41:14.117Z,21.00
2022-08-04T01:43:45.890Z,20.90
2022-08-04T01:46:17.228Z,20.90
2022-08-04T01:48:54.584Z,20.80
2022-08-04T01:51:24.754Z,20.80
2022-08-04T01:53:59.962Z,20.70
2022-08-04T01:56:31.949Z,20.80
2022-08-04T01:59:03.057Z,20.80
2022-08-04T02:11:03.264Z,20.80
2022-08-04T02:14:09.657Z,20.80
2022-08-04T02:16:53.009Z,20.90
2022-08-04T02:19:38.104Z,20.90
2022-08-04T02:22:09.621Z,20.90
2022-08-04T02:24:46.869Z,20.90
2022-08-04T02:27:29.056Z,20.90
2022-08-04T02:31:18.251Z,20.90
2022-08-04T02:33:52.163Z,20.90
2022-08-04T02:36:43.905Z,20.90
2022-08-04T02:39:13.933Z,20.90
2022-08-04T02:41:48.926Z,20.90
2022-08-04T02:44:23.554Z,20.90
2022-08-04T02:46:55.405Z,20.90
2022-08-04T02:49:26.776Z,20.90
2022-08-04T02:52:12.738Z,20.90
2022-08-04T02:54:45.786Z,20.90
2022-08-04T02:57:20.393Z,20.90
2022-08-04T03:00:16.572Z,20.90
2022-08-04T03:02:51.803Z,20.90
2022-08-04T03:06:21.824Z,20.90
2022-08-04T03:09:27.623Z,20.90
2022-08-04T03:12:35.070Z,20.90
2022-08-04T03:15:27.913Z,20.80
2022-08-04T03:18:25.740Z,20.80
2022-08-04T03:20:55.354Z,20.80
2022-08-04T03:24:40.574Z,20.80
2022-08-04T03:27:26.033Z,20.80
2022-08-04T03:30:11.871Z,20.90
2022-08-04T03:33:30.899Z,20.80
2022-08-04T03:36:27.297Z,20.80
2022-08-04T03:39:31.541Z,20.80
2022-08-04T03:42:25.013Z,20.80
2022-08-04T03:45:23.730Z,20.80
2022-08-04T03:48:17.595Z,20.80
2022-08-04T03:51:36.028Z,20.80
2022-08-04T03:54:24.996Z,20.80
2022-08-04T03:57:23.932Z,20.90
2022-08-04T04:00:12.546Z,20.90
2022-08-04T04:02:56.874Z,21.00
2022-08-04T04:05:33.006Z,21.00
2022-08-04T04:08:59.978Z,21.10
2022-08-04T04:12:03.448Z,21.10
2022-08-04T04:15:08.254Z,21.10
2022-08-04T04:18:09.449Z,21.10
2022-08-04T04:21:09.142Z,21.10
2022-08-04T04:24:13.581Z,21.20
2022-08-04T04:26:57.165Z,21.20
2022-08-04T04:30:04.973Z,21.20
2022-08-04T04:33:27.601Z,21.20
2022-08-04T04:36:17.916Z,21.20
2022-08-04T04:39:02.461Z,21.20
2022-08-04T04:41:40.048Z,21.20
2022-08-04T04:44:46.293Z,21.30
2022-08-04T04:48:09.416Z,21.40
2022-08-04T04:51:07.511Z,21.40
2022-08-04T04:54:00.275Z,21.50
2022-08-04T04:56:36.479Z,21.60
2022-08-04T04:59:11.214Z,21.60
2022-08-04T05:02:01.161Z,21.70
2022-08-04T05:04:41.809Z,21.80
2022-08-04T05:07:50.571Z,22.00
2022-08-04T05:10:38.216Z,22.20
2022-08-04T05:14:34.755Z,22.40
2022-08-04T05:17:03.601Z,22.60
2022-08-04T05:19:53.819Z,22.80
2022-08-04T05:22:41.827Z,23.00
2022-08-04T05:25:20.779Z,23.20
2022-08-04T05:28:05.787Z,23.50
2022-08-04T05:31:58.102Z,23.60
2022-08-04T05:34:31.455Z,24.00
2022-08-04T05:37:03.905Z,24.40
2022-08-04T05:39:57.914Z,24.60
2022-08-04T05:42:32.128Z,25.00
2022-08-04T05:45:00.775Z,25.30
2022-08-04T05:47:31.263Z,25.60
2022-08-04T05:50:01.311Z,25.80
2022-08-04T05:52:34.409Z,26.10
2022-08-04T05:55:04.030Z,26.40
2022-08-04T05:57:34.517Z,26.90
2022-08-04T06:00:41.400Z,27.30
2022-08-04T06:04:22.705Z,27.60
2022-08-04T06:06:51.217Z,27.90
2022-08-04T06:09:20.185Z,28.40
2022-08-04T06:11:59.192Z,28.60
2022-08-04T06:14:41.414Z,28.90
2022-08-04T06:18:32.270Z,29.10
2022-08-04T06:20:18.272Z,29.30
2022-08-04T06:22:54.760Z,29.50
2022-08-04T06:25:28.788Z,29.50
2022-08-04T06:27:58.511Z,29.60
2022-08-04T06:30:32.500Z,29.80
2022-08-04T06:33:05.204Z,29.90
2022-08-04T06:35:34.415Z,30.00
2022-08-04T06:38:05.388Z,30.20
2022-08-04T06:40:35.286Z,30.30
2022-08-04T06:43:13.136Z,30.40
2022-08-04T06:45:44.901Z,30.50
2022-08-04T06:48:17.862Z,30.50
2022-08-04T06:51:26.758Z,30.60
2022-08-04T06:53:39.287Z,30.80
2022-08-04T06:56:09.002Z,31.00
2022-08-04T06:58:39.799Z,31.10
2022-08-04T07:01:09.341Z,31.10
2022-08-04T07:03:38.121Z,31.30
2022-08-04T07:06:14.074Z,31.30
2022-08-04T07:08:44.526Z,31.40
2022-08-04T07:11:13.649Z,31.50
2022-08-04T07:13:45.576Z,31.50
2022-08-04T07:16:18.542Z,31.50
2022-08-04T07:18:50.683Z,31.70
2022-08-04T07:21:24.692Z,31.80
2022-08-04T07:25:01.298Z,31.90
2022-08-04T07:27:48.167Z,32.20
2022-08-04T07:30:23.011Z,32.20
2022-08-04T07:32:54.862Z,32.30
2022-08-04T07:36:05.353Z,32.40
2022-08-04T07:38:13.399Z,32.40
2022-08-04T07:40:45.983Z,32.50
2022-08-04T07:43:17.123Z,32.20
2022-08-04T07:45:45.479Z,32.40
2022-08-04T07:48:15.910Z,32.50
2022-08-04T07:50:45.650Z,32.70
2022-08-04T07:53:54.290Z,32.70
2022-08-04T07:56:04.445Z,32.70
2022-08-04T07:58:34.701Z,32.60
2022-08-04T08:01:03.161Z,32.50
2022-08-04T08:03:32.228Z,32.50
2022-08-04T08:06:17.363Z,32.60
2022-08-04T08:08:48.483Z,32.80
2022-08-04T08:11:18.132Z,33.30
2022-08-04T08:13:46.600Z,33.30
2022-08-04T08:16:15.149Z,33.50
2022-08-04T08:18:50.048Z,33.60
2022-08-04T08:21:21.357Z,33.70
2022-08-04T08:23:50.824Z,33.90
2022-08-04T08:26:18.859Z,34.30
2022-08-04T08:28:47.384Z,34.80
2022-08-04T08:31:15.749Z,35.20
2022-08-04T08:33:44.485Z,35.40
2022-08-04T08:36:16.507Z,35.30
2022-08-04T08:38:55.474Z,35.00
2022-08-04T08:41:53.205Z,35.20
2022-08-04T08:44:43.509Z,35.30
2022-08-04T08:48:05.316Z,35.50
2022-08-04T08:51:18.501Z,36.00
2022-08-04T08:54:05.664Z,35.20
2022-08-04T08:56:55.363Z,35.30
2022-08-04T08:59:41.767Z,34.80
2022-08-04T09:02:10.776Z,34.50
2022-08-04T09:04:50.399Z,34.40
2022-08-04T09:07:49.840Z,34.50
2022-08-04T09:10:45.824Z,34.50
2022-08-04T09:13:34.745Z,34.90
2022-08-04T09:16:18.292Z,34.80
2022-08-04T09:19:05.797Z,34.70
2022-08-04T09:21:49.344Z,34.50
2022-08-04T09:24:35.754Z,34.60
2022-08-04T09:27:16.379Z,34.70
2022-08-04T09:30:07.750Z,34.70
2022-08-04T09:33:04.492Z,34.90
2022-08-04T09:35:59.955Z,34.80
2022-08-04T09:38:50.234Z,35.20
2022-08-04T09:41:48.123Z,35.10
2022-08-04T09:44:48.953Z,35.90
2022-08-04T09:47:39.716Z,35.80
2022-08-04T09:50:38.892Z,35.90
2022-08-04T09:53:25.415Z,36.00
2022-08-04T09:56:03.786Z,36.10
2022-08-04T09:59:07.449Z,35.90
2022-08-04T10:01:37.131Z,35.90
2022-08-04T10:04:12.414Z,35.70
2022-08-04T10:07:00.117Z,35.70
2022-08-04T10:09:56.671Z,35.30
2022-08-04T10:12:59.328Z,35.70
2022-08-04T10:15:41.555Z,35.20
2022-08-04T10:18:26.969Z,35.70
2022-08-04T10:21:15.590Z,36.00
2022-08-04T10:24:02.178Z,36.10
2022-08-04T10:27:05.024Z,36.00
2022-08-04T10:29:47.288Z,35.70
2022-08-04T10:32:43.111Z,35.70
2022-08-04T10:35:24.126Z,36.00
2022-08-04T10:38:10.512Z,35.80
2022-08-04T10:40:49.409Z,36.00
2022-08-04T10:43:39.985Z,36.40
2022-08-04T10:46:08.270Z,36.20
2022-08-04T10:48:36.254Z,36.20
2022-08-04T10:51:28.307Z,36.20
2022-08-04T10:54:08.658Z,35.80
2022-08-04T10:56:55.107Z,36.00
2022-08-04T10:59:39.074Z,36.40
2022-08-04T11:02:43.443Z,36.70
2022-08-04T11:05:44.029Z,36.20
2022-08-04T11:08:36.219Z,36.00
2022-08-04T11:11:15.695Z,35.60
2022-08-04T11:13:48.092Z,36.10
2022-08-04T11:16:30.262Z,36.60
2022-08-04T11:19:21.389Z,36.70
2022-08-04T11:22:23.725Z,36.70
2022-08-04T11:25:21.512Z,36.80
2022-08-04T11:28:30.637Z,36.90
2022-08-04T11:31:23.872Z,37.60
2022-08-04T11:34:22.909Z,37.20
2022-08-04T11:37:16.187Z,37.20
2022-08-04T11:40:07.398Z,36.70
2022-08-04T11:42:42.492Z,36.60
2022-08-04T11:45:19.941Z,35.90
2022-08-04T11:47:58.604Z,36.40
2022-08-04T11:50:56.842Z,36.70
2022-08-04T11:53:34.714Z,36.40
2022-08-04T11:56:11.198Z,36.50
2022-08-04T11:58:41.041Z,36.00
2022-08-04T12:01:29.655Z,36.50
2022-08-04T12:04:27.342Z,36.70
2022-08-04T12:07:30.694Z,36.80
2022-08-04T12:10:10.318Z,36.80
2022-08-04T12:12:50.997Z,36.80
2022-08-04T12:15:30.671Z,37.40
2022-08-04T12:18:08.414Z,37.90
2022-08-04T12:20:48.763Z,38.30
2022-08-04T12:23:38.407Z,38.10
2022-08-04T12:26:21.280Z,38.00
2022-08-04T12:29:09.723Z,38.00
2022-08-04T12:31:54.045Z,37.70
2022-08-04T12:34:47.419Z,37.60
2022-08-04T12:37:30.260Z,37.40
2022-08-04T12:40:28.142Z,38.00
2022-08-04T12:43:18.414Z,38.70
2022-08-04T12:45:55.598Z,39.70
2022-08-04T12:48:26.811Z,38.60
2022-08-04T12:50:57.225Z,38.40
2022-08-04T12:53:51.122Z,37.60
2022-08-04T12:56:28.592Z,38.10
2022-08-04T12:59:18.157Z,38.50
2022-08-04T13:02:11.319Z,38.40
2022-08-04T13:04:51.528Z,37.50
2022-08-04T13:07:25.785Z,37.10
2022-08-04T13:09:54.377Z,37.50
2022-08-04T13:12:32.048Z,37.80
2022-08-04T13:15:17.703Z,37.80
2022-08-04T13:17:57.247Z,37.40
2022-08-04T13:20:36.379Z,36.90
2022-08-04T13:23:14.532Z,37.50
2022-08-04T13:26:44.385Z,38.30
2022-08-04T13:28:44.162Z,38.30
2022-08-04T13:31:19.937Z,37.80
2022-08-04T13:33:53.424Z,37.80
2022-08-04T13:36:25.579Z,37.60
2022-08-04T13:39:01.696Z,37.60
2022-08-04T13:41:31.421Z,37.50
2022-08-04T13:44:19.111Z,37.30
2022-08-04T13:46:52.095Z,36.90
2022-08-04T13:49:42.456Z,36.90
2022-08-04T13:52:11.084Z,37.10
2022-08-04T13:54:47.331Z,37.60
2022-08-04T13:57:28.081Z,38.40
2022-08-04T14:00:01.751Z,38.40
2022-08-04T14:02:45.155Z,38.90
2022-08-04T14:05:28.009Z,39.10
2022-08-04T14:08:24.889Z,39.40
2022-08-04T14:10:57.031Z,39.70
2022-08-04T14:13:41.248Z,39.70
2022-08-04T14:16:22.333Z,39.90
2022-08-04T14:19:01.858Z,39.60
2022-08-04T14:21:36.424Z,38.50
2022-08-04T14:24:04.312Z,38.40
2022-08-04T14:26:37.130Z,38.80
2022-08-04T14:29:26.789Z,38.70
2022-08-04T14:32:10.761Z,38.40
2022-08-04T14:34:45.967Z,38.90
2022-08-04T14:37:20.586Z,38.60
2022-08-04T14:40:18.027Z,38.90
2022-08-04T14:42:54.620Z,39.00
2022-08-04T14:45:53.868Z,38.80
2022-08-04T14:48:23.113Z,38.30
2022-08-04T14:50:52.596Z,37.60
2022-08-04T14:53:31.102Z,37.50
2022-08-04T14:56:00.309Z,37.60
2022-08-04T14:58:39.063Z,37.50
2022-08-04T15:01:11.804Z,37.20
2022-08-04T15:03:49.831Z,37.20
2022-08-04T15:06:28.071Z,37.10
2022-08-04T15:08:58.653Z,37.50
2022-08-04T15:11:29.765Z,37.00
2022-08-04T15:13:59.503Z,37.40
2022-08-04T15:16:30.378Z,37.50
2022-08-04T15:19:00.072Z,37.60
2022-08-04T15:21:29.807Z,37.70
2022-08-04T15:23:58.874Z,37.70
2022-08-04T15:26:34.132Z,37.20
2022-08-04T15:30:00.743Z,36.90
2022-08-04T15:32:25.261Z,36.70
2022-08-04T15:35:04.018Z,36.40
2022-08-04T15:37:37.646Z,36.20
2022-08-04T15:40:16.760Z,35.80
2022-08-04T15:43:01.207Z,35.70
2022-08-04T15:46:37.178Z,35.70
2022-08-04T15:48:21.084Z,35.90
2022-08-04T15:51:08.492Z,36.10
2022-08-04T15:54:02.701Z,36.10
2022-08-04T15:56:37.450Z,35.80
2022-08-04T15:59:05.712Z,35.80
2022-08-04T16:01:33.711Z,35.80
2022-08-04T16:04:21.832Z,35.70
2022-08-04T16:06:49.664Z,35.50
2022-08-04T16:09:45.713Z,35.40
2022-08-04T16:12:54.697Z,35.50
2022-08-04T16:15:43.870Z,35.50
2022-08-04T16:18:26.648Z,35.30
2022-08-04T16:21:01.742Z,35.10
2022-08-04T16:23:54.285Z,35.00
2022-08-04T16:26:42.412Z,35.10
2022-08-04T16:29:23.556Z,35.00
2022-08-04T16:32:07.345Z,34.80
2022-08-04T16:34:54.824Z,34.60
2022-08-04T16:37:35.747Z,34.50
2022-08-04T16:40:33.653Z,34.40
2022-08-04T16:43:09.339Z,34.40
2022-08-04T16:45:45.272Z,34.40
2022-08-04T16:48:14.939Z,34.50
2022-08-04T16:51:06.480Z,34.60
2022-08-04T16:54:04.650Z,34.60
2022-08-04T16:56:35.868Z,34.60
2022-08-04T16:59:11.865Z,34.50
2022-08-04T17:01:51.041Z,34.50
2022-08-04T17:04:28.348Z,34.40
2022-08-04T17:07:02.226Z,34.40
2022-08-04T17:09:30.825Z,34.40
2022-08-04T17:11:59.372Z,34.40
2022-08-04T17:14:29.556Z,34.30
2022-08-04T17:17:01.881Z,34.30
2022-08-04T17:19:29.772Z,34.30
2022-08-04T17:22:20.552Z,34.40
2022-08-04T17:24:49.419Z,34.50
2022-08-04T17:30:25.350Z,34.70
2022-08-04T17:32:53.692Z,34.70
2022-08-04T17:35:21.945Z,34.70
2022-08-04T17:37:52.942Z,34.80
2022-08-04T17:44:01.132Z,34.70
2022-08-04T17:46:36.174Z,34.80
2022-08-04T17:49:20.370Z,34.70
2022-08-04T17:52:02.535Z,34.50
2022-08-04T17:54:43.455Z,34.40
2022-08-04T17:57:22.173Z,34.30
2022-08-04T17:59:57.970Z,34.10
2022-08-04T18:02:33.030Z,34.00
2022-08-04T18:05:06.739Z,33.90
2022-08-04T18:08:35.220Z,33.60
2022-08-04T18:10:55.051Z,33.00
2022-08-04T18:13:26.222Z,32.60
2022-08-04T18:16:14.352Z,32.20
2022-08-04T18:19:19.131Z,31.80
2022-08-04T18:22:27.727Z,31.60
2022-08-04T18:25:00.933Z,31.20
2022-08-04T18:27:33.108Z,31.10
2022-08-04T18:30:27.986Z,30.90
2022-08-04T18:33:24.306Z,30.70
2022-08-04T18:36:35.283Z,30.40
2022-08-04T18:38:36.517Z,30.40
2022-08-04T18:41:22.598Z,30.30
2022-08-04T18:43:55.585Z,30.20
2022-08-04T18:46:26.881Z,30.00
2022-08-04T18:48:55.780Z,29.90
2022-08-04T18:51:25.184Z,29.90
2022-08-04T18:53:59.434Z,29.80
2022-08-04T18:56:29.854Z,29.70
2022-08-04T18:59:03.073Z,29.70
2022-08-04T19:02:12.278Z,29.70
2022-08-04T19:04:32.760Z,29.50
2022-08-04T19:07:26.596Z,29.50
2022-08-04T19:09:59.747Z,29.50
2022-08-04T19:12:28.650Z,29.40
2022-08-04T19:17:52.492Z,29.30
2022-08-04T19:20:25.498Z,29.20
2022-08-04T19:24:29.657Z,29.10
2022-08-04T19:26:02.712Z,29.10
2022-08-04T19:28:36.547Z,29.00
2022-08-04T19:31:08.215Z,29.00
2022-08-04T19:36:31.100Z,28.80
2022-08-04T19:39:01.690Z,28.90
2022-08-04T19:41:31.924Z,28.80
2022-08-04T19:44:00.099Z,28.80
2022-08-04T19:46:28.928Z,28.80
2022-08-04T19:48:59.474Z,28.80
2022-08-04T19:51:38.888Z,28.80
2022-08-04T19:54:23.527Z,28.70
2022-08-04T19:56:51.518Z,28.70
2022-08-04T19:59:19.610Z,28.60
2022-08-04T20:01:47.675Z,28.60
2022-08-04T20:04:16.183Z,28.60
2022-08-04T20:06:44.555Z,28.60
2022-08-04T20:09:24.470Z,28.50
2022-08-04T20:11:56.459Z,28.50
2022-08-04T20:14:33.524Z,28.50
2022-08-04T20:17:03.214Z,28.50
2022-08-04T20:19:39.430Z,28.50
2022-08-04T20:22:51.249Z,28.50
2022-08-04T20:25:01.011Z,28.30
2022-08-04T20:27:59.312Z,28.20
2022-08-04T20:30:30.165Z,28.30
2022-08-04T20:33:00.081Z,28.20
2022-08-04T20:36:03.313Z,28.20
2022-08-04T20:38:33.033Z,28.10
2022-08-04T20:41:02.938Z,28.00
2022-08-04T20:43:31.914Z,28.00
2022-08-04T20:46:02.363Z,27.90
2022-08-04T20:48:45.794Z,27.90
2022-08-04T20:51:20.124Z,27.80
2022-08-04T20:54:00.339Z,27.80
2022-08-04T20:56:30.548Z,27.70
2022-08-04T20:59:00.783Z,27.60
2022-08-04T21:01:30.140Z,27.70
2022-08-04T21:04:27.223Z,27.60
2022-08-04T21:06:56.087Z,27.60
2022-08-04T21:09:36.868Z,27.50
2022-08-04T21:12:10.437Z,27.50
2022-08-04T21:14:38.394Z,27.40
2022-08-04T21:17:11.024Z,27.40
2022-08-04T21:19:44.754Z,27.30
2022-08-04T21:25:06.535Z,27.30
2022-08-04T21:27:39.372Z,27.10
2022-08-04T21:30:23.857Z,27.00
2022-08-04T21:32:52.242Z,27.00
2022-08-04T21:35:19.966Z,27.00
2022-08-04T21:37:58.184Z,27.00
2022-08-04T21:40:36.957Z,27.00
2022-08-04T21:43:08.208Z,26.90
2022-08-04T21:45:37.760Z,26.90
2022-08-04T21:48:06.005Z,26.80
2022-08-04T21:50:33.702Z,26.80
2022-08-04T21:53:01.532Z,26.80
2022-08-04T21:56:00.268Z,26.80
2022-08-04T21:58:17.578Z,26.80
2022-08-04T22:00:54.964Z,26.70
2022-08-04T22:03:51.776Z,26.80
2022-08-04T22:06:17.542Z,26.80
2022-08-04T22:08:49.396Z,26.70
2022-08-04T22:11:26.061Z,26.60
2022-08-04T22:14:10.689Z,26.70
2022-08-04T22:16:40.003Z,26.60
2022-08-04T22:19:08.972Z,26.50
2022-08-04T22:21:45.375Z,26.50
2022-08-04T22:24:14.695Z,26.50
2022-08-04T22:26:42.507Z,26.40
2022-08-04T22:29:14.490Z,26.40
2022-08-04T22:31:56.296Z,26.30
2022-08-04T22:34:25.518Z,26.30
2022-08-04T22:36:54.011Z,26.30
2022-08-04T22:39:23.573Z,26.30
2022-08-04T22:42:03.132Z,26.20
2022-08-04T22:44:33.921Z,26.20
2022-08-04T22:47:04.608Z,26.20
2022-08-04T22:49:37.283Z,26.20
2022-08-04T22:52:12.352Z,26.10
2022-08-04T22:54:46.844Z,26.00
2022-08-04T22:57:16.680Z,25.90
2022-08-04T22:59:44.342Z,25.90
2022-08-04T23:02:16.846Z,25.90
2022-08-04T23:04:44.718Z,25.90
2022-08-04T23:07:17.772Z,25.80
2022-08-04T23:09:51.906Z,25.80
2022-08-04T23:12:25.345Z,25.80
2022-08-04T23:14:58.842Z,25.60
2022-08-04T23:17:35.207Z,25.70
2022-08-04T23:20:23.037Z,25.60
2022-08-04T23:22:55.893Z,25.60
2022-08-04T23:25:33.120Z,25.50
2022-08-04T23:28:12.721Z,25.50
2022-08-04T23:30:40.696Z,25.40
2022-08-04T23:33:13.385Z,25.40
2022-08-04T23:35:43.283Z,25.40
2022-08-04T23:38:31.063Z,25.50
2022-08-04T23:41:08.390Z,25.40
2022-08-04T23:43:54.914Z,25.30
2022-08-04T23:46:23.860Z,25.30
2022-08-04T23:48:52.278Z,25.30
2022-08-04T23:51:20.368Z,25.30
2022-08-04T23:54:03.182Z,25.20
2022-08-04T23:56:34.460Z,25.20
2022-08-04T23:59:03.653Z,25.20
